Time;durP1;ratioP1;P1;durP2;ratioP2;P2;SDS_P1;SDS_P2;PMS_P1;PMS_P2;Temp;Humidity;BMP_temperature;BMP_pressure;BME280_temperature;BME280_humidity;BME280_pressure;Samples;Min_cycle;Max_cycle;Signal;HPM_P1;HPM_P2
2023/11/01 00:00:43;;;;;;;2.08;0.98;;;14.30;99.90;;;;;;4994096;28;20427;-36
2023/11/01 00:03:09;;;;;;;2.80;1.20;;;14.30;99.90;;;;;;4994227;28;20034;-42
2023/11/01 00:05:34;;;;;;;2.15;0.88;;;14.30;99.90;;;;;;4994026;28;20026;-39
2023/11/01 00:08:00;;;;;;;1.77;0.70;;;14.40;99.90;;;;;;4994111;28;20409;-37
2023/11/01 00:10:26;;;;;;;2.30;0.75;;;14.30;99.90;;;;;;4994240;28;20022;-44
2023/11/01 00:12:51;;;;;;;1.52;0.82;;;14.30;99.90;;;;;;4994217;28;20403;-40
2023/11/01 00:15:17;;;;;;;1.65;0.95;;;14.40;99.90;;;;;;4993952;28;20480;-42
2023/11/01 00:17:43;;;;;;;1.98;0.77;;;14.30;99.90;;;;;;4993883;28;20073;-40
2023/11/01 00:20:09;;;;;;;2.33;0.85;;;14.30;99.90;;;;;;4993784;28;20035;-40
2023/11/01 00:22:35;;;;;;;1.98;0.80;;;14.30;99.90;;;;;;4994484;28;20407;-42
2023/11/01 00:25:01;;;;;;;2.03;0.85;;;14.30;99.90;;;;;;4993629;28;20061;-39
2023/11/01 00:27:30;;;;;;;3.40;1.13;;;14.40;99.90;;;;;;4993600;28;20027;-39
2023/11/01 00:29:57;;;;;;;1.92;1.00;;;14.30;99.90;;;;;;4993679;28;20065;-39
2023/11/01 00:32:22;;;;;;;1.40;0.90;;;14.30;99.90;;;;;;4993655;28;20030;-42
2023/11/01 00:34:48;;;;;;;0.93;0.70;;;14.30;99.90;;;;;;4993613;28;20506;-40
2023/11/01 00:37:14;;;;;;;1.40;0.80;;;14.30;99.90;;;;;;4993352;28;20098;-36
2023/11/01 00:39:39;;;;;;;1.30;0.93;;;14.30;99.90;;;;;;4993499;28;20069;-39
2023/11/01 00:42:05;;;;;;;2.33;0.82;;;14.30;99.90;;;;;;4976005;28;20033;-41
2023/11/01 00:44:31;;;;;;;2.97;0.98;;;14.30;99.90;;;;;;4993428;28;20026;-40
2023/11/01 00:46:56;;;;;;;3.10;0.80;;;14.30;99.90;;;;;;4993215;28;20057;-37
2023/11/01 00:49:22;;;;;;;2.22;0.70;;;14.30;99.90;;;;;;4993251;28;20365;-40
2023/11/01 00:51:47;;;;;;;1.30;0.52;;;14.30;99.90;;;;;;4992882;28;20038;-39
2023/11/01 00:54:13;;;;;;;2.67;0.90;;;14.30;99.90;;;;;;4993201;28;20026;-39
2023/11/01 00:56:40;;;;;;;2.40;0.77;;;14.30;99.90;;;;;;4993183;28;20043;-37
2023/11/01 00:59:05;;;;;;;1.77;0.90;;;14.30;99.90;;;;;;4993161;28;20026;-40
2023/11/01 01:01:31;;;;;;;2.95;0.85;;;14.30;99.90;;;;;;4993029;28;20498;-39
2023/11/01 01:03:58;;;;;;;1.67;0.70;;;14.30;99.90;;;;;;4993105;28;20050;-40
2023/11/01 01:06:24;;;;;;;2.80;1.08;;;14.30;99.90;;;;;;4991928;28;20098;-39
2023/11/01 01:08:50;;;;;;;1.77;0.70;;;14.30;99.90;;;;;;4993039;28;20046;-41
2023/11/01 01:11:17;;;;;;;1.75;0.60;;;14.30;99.90;;;;;;4992906;28;20046;-41
2023/11/01 01:13:43;;;;;;;2.17;0.70;;;14.30;99.90;;;;;;4992933;28;20018;-39
2023/11/01 01:16:09;;;;;;;2.78;0.80;;;14.30;99.90;;;;;;4991557;28;20030;-42
2023/11/01 01:18:35;;;;;;;1.52;0.70;;;14.30;99.90;;;;;;4992737;28;20026;-40
2023/11/01 01:21:01;;;;;;;1.63;0.70;;;14.30;99.90;;;;;;4992518;28;20034;-39
2023/11/01 01:23:27;;;;;;;1.48;0.68;;;14.30;99.90;;;;;;4992839;28;20097;-41
2023/11/01 01:25:52;;;;;;;2.22;0.75;;;14.30;99.90;;;;;;4992664;28;20038;-40
2023/11/01 01:28:18;;;;;;;1.98;0.70;;;14.30;99.90;;;;;;4992609;28;20072;-39
2023/11/01 01:30:44;;;;;;;2.30;0.90;;;14.30;99.90;;;;;;4992500;28;20026;-36
2023/11/01 01:33:09;;;;;;;1.50;0.70;;;14.30;99.90;;;;;;4992581;28;20033;-39
2023/11/01 01:35:35;;;;;;;1.30;0.90;;;14.30;99.90;;;;;;4992262;28;20102;-39
2023/11/01 01:38:00;;;;;;;1.10;0.70;;;14.30;99.90;;;;;;4992617;28;20661;-40
2023/11/01 01:40:26;;;;;;;1.52;0.73;;;14.30;99.90;;;;;;4992355;28;20026;-42
2023/11/01 01:42:52;;;;;;;2.25;0.68;;;14.30;99.90;;;;;;4992423;28;20026;-39
2023/11/01 01:45:18;;;;;;;1.27;0.55;;;14.30;99.90;;;;;;4992261;28;20357;-40
2023/11/01 01:47:45;;;;;;;3.40;0.90;;;14.30;99.90;;;;;;4992231;28;20033;-42
2023/11/01 01:50:11;;;;;;;2.75;0.70;;;14.30;99.90;;;;;;5030276;23;20041;-35
2023/11/01 01:52:36;;;;;;;1.77;0.70;;;14.30;99.90;;;;;;4991952;28;20049;-35
2023/11/01 01:55:06;;;;;;;1.55;0.70;;;14.30;99.90;;;;;;4991713;28;20026;-37
2023/11/01 01:57:32;;;;;;;2.65;0.80;;;14.30;99.90;;;;;;4992007;28;20042;-36
2023/11/01 02:00:00;;;;;;;1.95;0.85;;;14.30;99.90;;;;;;4991934;28;20042;-36
2023/11/01 02:02:26;;;;;;;1.48;0.68;;;14.30;99.90;;;;;;4991993;28;20542;-36
2023/11/01 02:04:52;;;;;;;1.38;0.60;;;14.20;99.90;;;;;;4991877;28;20038;-36
2023/11/01 02:07:17;;;;;;;1.02;0.60;;;14.20;99.90;;;;;;4991811;28;20073;-38
2023/11/01 02:09:43;;;;;;;1.63;0.73;;;14.30;99.90;;;;;;4992015;28;20052;-36
2023/11/01 02:12:09;;;;;;;1.75;0.60;;;14.20;99.90;;;;;;4991897;28;20037;-36
2023/11/01 02:14:34;;;;;;;2.85;0.73;;;14.30;99.90;;;;;;4991961;28;20029;-36
2023/11/01 02:17:00;;;;;;;1.80;0.60;;;14.30;99.90;;;;;;4974050;28;20062;-36
2023/11/01 02:19:25;;;;;;;1.38;0.70;;;14.20;99.90;;;;;;4991866;28;20033;-38
2023/11/01 02:21:51;;;;;;;2.92;0.70;;;14.20;99.90;;;;;;4991777;28;20061;-36
2023/11/01 02:24:17;;;;;;;2.13;0.77;;;14.30;99.90;;;;;;4991897;28;20109;-35
2023/11/01 02:26:43;;;;;;;7.07;0.60;;;14.20;99.90;;;;;;4991879;28;20026;-35
2023/11/01 02:29:09;;;;;;;2.80;0.70;;;14.30;99.90;;;;;;4991830;28;20086;-35
2023/11/01 02:31:35;;;;;;;3.63;0.60;;;14.30;99.90;;;;;;4991589;28;20022;-35
2023/11/01 02:34:00;;;;;;;1.42;0.60;;;14.20;99.90;;;;;;4991725;28;20037;-35
2023/11/01 02:36:26;;;;;;;1.10;0.40;;;14.20;99.90;;;;;;4991531;28;20037;-38
2023/11/01 02:38:52;;;;;;;1.92;0.60;;;14.20;99.90;;;;;;4991685;28;20022;-35
2023/11/01 02:41:18;;;;;;;1.90;0.60;;;14.20;99.90;;;;;;4991603;28;20620;-35
2023/11/01 02:43:43;;;;;;;3.33;0.75;;;14.20;99.90;;;;;;4992011;28;20038;-35
2023/11/01 02:46:09;;;;;;;1.38;0.50;;;14.20;99.90;;;;;;4991364;28;20080;-35
2023/11/01 02:48:35;;;;;;;2.35;0.70;;;14.20;99.90;;;;;;4991550;28;20506;-36
2023/11/01 02:51:00;;;;;;;2.78;0.73;;;14.20;99.90;;;;;;4991397;28;20447;-36
2023/11/01 02:53:26;;;;;;;2.38;0.75;;;14.20;99.90;;;;;;4991563;28;20035;-36
2023/11/01 02:55:51;;;;;;;1.15;0.38;;;14.20;99.90;;;;;;4991534;28;20058;-35
2023/11/01 02:58:17;;;;;;;1.40;0.52;;;14.20;99.90;;;;;;4991547;28;20034;-36
2023/11/01 03:00:43;;;;;;;0.57;0.47;;;14.20;99.90;;;;;;4991504;28;20419;-39
2023/11/01 03:03:08;;;;;;;1.92;0.85;;;14.20;99.90;;;;;;4991418;28;20031;-35
2023/11/01 03:05:34;;;;;;;1.35;0.60;;;14.20;99.90;;;;;;4991283;28;20031;-35
2023/11/01 03:07:59;;;;;;;2.10;0.70;;;14.20;99.90;;;;;;4991447;28;20033;-36
2023/11/01 03:10:25;;;;;;;2.00;0.52;;;14.20;99.90;;;;;;4991353;28;20162;-36
2023/11/01 03:12:51;;;;;;;1.63;0.60;;;14.20;99.90;;;;;;4991424;28;20537;-38
2023/11/01 03:15:17;;;;;;;1.23;0.55;;;14.20;99.90;;;;;;4991198;28;20462;-36
2023/11/01 03:17:42;;;;;;;1.27;0.60;;;14.20;99.90;;;;;;4991733;28;20030;-35
2023/11/01 03:20:08;;;;;;;3.42;0.50;;;14.20;99.90;;;;;;4991290;28;20061;-35
2023/11/01 03:22:34;;;;;;;3.25;0.70;;;14.20;99.90;;;;;;4991224;28;20027;-36
2023/11/01 03:25:01;;;;;;;1.73;0.47;;;14.20;99.90;;;;;;4991299;28;20023;-35
2023/11/01 03:27:26;;;;;;;0.93;0.35;;;14.20;99.90;;;;;;4991207;28;20022;-36
2023/11/01 03:29:53;;;;;;;2.53;0.60;;;14.20;99.90;;;;;;4993620;28;20023;-36
2023/11/01 03:32:19;;;;;;;1.13;0.47;;;14.20;99.90;;;;;;4994709;28;20026;-35
2023/11/01 03:34:45;;;;;;;2.15;0.70;;;14.20;99.90;;;;;;4994942;28;20018;-35
2023/11/01 03:37:11;;;;;;;1.88;0.80;;;14.20;99.90;;;;;;4994478;28;20468;-35
2023/11/01 03:39:36;;;;;;;2.63;0.60;;;14.20;99.90;;;;;;4994646;28;20034;-36
2023/11/01 03:42:04;;;;;;;1.15;0.60;;;14.10;99.90;;;;;;4994481;28;20034;-36
2023/11/01 03:44:34;;;;;;;2.25;0.70;;;14.20;99.90;;;;;;4994385;28;20041;-38
2023/11/01 03:47:00;;;;;;;1.80;0.50;;;14.10;99.90;;;;;;4994266;28;20390;-35
2023/11/01 03:49:29;;;;;;;2.15;0.75;;;14.20;99.90;;;;;;4994418;28;20018;-36
2023/11/01 03:51:57;;;;;;;1.65;0.60;;;14.20;99.90;;;;;;4994202;28;20554;-36
2023/11/01 03:54:22;;;;;;;1.90;0.60;;;14.10;99.90;;;;;;4994361;28;20030;-35
2023/11/01 03:56:48;;;;;;;3.08;0.65;;;14.20;99.90;;;;;;4994575;28;20089;-38
2023/11/01 03:59:14;;;;;;;1.88;0.60;;;14.10;99.90;;;;;;4994223;28;20038;-35
2023/11/01 04:01:40;;;;;;;1.33;0.45;;;14.10;99.90;;;;;;4994204;28;20069;-35
2023/11/01 04:04:05;;;;;;;1.60;0.55;;;14.10;99.90;;;;;;4994125;28;20437;-37
2023/11/01 04:06:31;;;;;;;1.92;0.75;;;14.10;99.90;;;;;;4993928;28;20164;-36
2023/11/01 04:08:57;;;;;;;3.30;0.50;;;14.10;99.90;;;;;;4994111;28;20072;-36
2023/11/01 04:11:22;;;;;;;1.20;0.52;;;14.10;99.90;;;;;;4994022;28;20022;-36
2023/11/01 04:13:49;;;;;;;1.25;0.50;;;14.10;99.90;;;;;;4993823;28;20112;-35
2023/11/01 04:16:15;;;;;;;1.85;0.70;;;14.10;99.90;;;;;;4993778;28;20130;-37
2023/11/01 04:18:42;;;;;;;2.33;0.75;;;14.10;99.90;;;;;;4993976;28;20062;-38
2023/11/01 04:21:07;;;;;;;2.22;0.65;;;14.10;99.90;;;;;;4993716;28;20038;-35
2023/11/01 04:23:34;;;;;;;1.95;0.60;;;14.10;99.90;;;;;;4993914;28;20026;-36
2023/11/01 04:26:00;;;;;;;2.05;0.60;;;14.10;99.90;;;;;;4993567;28;20022;-35
2023/11/01 04:28:26;;;;;;;1.48;0.52;;;14.10;99.90;;;;;;4993489;28;20114;-36
2023/11/01 04:30:51;;;;;;;1.67;0.70;;;14.10;99.90;;;;;;4993573;28;20026;-36
2023/11/01 04:33:17;;;;;;;1.70;0.73;;;14.10;99.90;;;;;;4993589;28;20022;-38
2023/11/01 04:35:43;;;;;;;1.55;0.52;;;14.10;99.90;;;;;;4993484;28;20436;-35
2023/11/01 04:38:08;;;;;;;2.60;0.60;;;14.10;99.90;;;;;;4993425;28;20018;-35
2023/11/01 04:40:34;;;;;;;2.25;0.65;;;14.10;99.90;;;;;;4992272;28;20034;-36
2023/11/01 04:43:00;;;;;;;1.80;0.65;;;14.10;99.90;;;;;;4993292;28;20389;-36
2023/11/01 04:45:26;;;;;;;1.80;0.50;;;14.10;99.90;;;;;;4993253;28;20058;-35
2023/11/01 04:47:51;;;;;;;1.50;0.50;;;14.10;99.90;;;;;;4993372;28;20022;-35
2023/11/01 04:50:17;;;;;;;1.63;0.60;;;14.10;99.90;;;;;;4993136;28;20112;-36
2023/11/01 04:52:43;;;;;;;1.88;0.70;;;14.10;99.90;;;;;;4993177;28;20029;-35
2023/11/01 04:55:10;;;;;;;2.72;0.75;;;14.10;99.90;;;;;;4993044;28;20019;-35
2023/11/01 04:57:36;;;;;;;1.08;0.40;;;14.10;99.90;;;;;;4992953;28;20109;-35
2023/11/01 05:00:08;;;;;;;1.42;0.60;;;14.10;99.90;;;;;;4992989;28;20030;-35
2023/11/01 05:02:35;;;;;;;1.27;0.50;;;14.10;99.90;;;;;;4993029;28;20030;-38
2023/11/01 05:05:05;;;;;;;0.70;0.40;;;14.10;99.90;;;;;;4992972;28;20034;-36
2023/11/01 05:07:31;;;;;;;0.98;0.30;;;14.10;99.90;;;;;;4992689;28;20023;-35
2023/11/01 05:09:56;;;;;;;0.60;0.30;;;14.10;99.90;;;;;;4992766;28;20033;-36
2023/11/01 05:12:22;;;;;;;0.90;0.47;;;14.10;99.90;;;;;;4992740;28;20074;-37
2023/11/01 05:14:47;;;;;;;1.92;0.50;;;14.10;99.90;;;;;;4992760;28;20037;-35
2023/11/01 05:17:13;;;;;;;2.92;0.47;;;14.10;99.90;;;;;;4992716;28;20034;-37
2023/11/01 05:19:39;;;;;;;1.45;0.57;;;14.10;99.90;;;;;;4992686;28;20395;-36
2023/11/01 05:22:05;;;;;;;0.98;0.40;;;14.10;99.90;;;;;;4992486;28;20109;-37
2023/11/01 05:24:31;;;;;;;1.60;0.55;;;14.10;99.90;;;;;;4992492;28;20045;-35
2023/11/01 05:26:57;;;;;;;1.65;0.40;;;14.10;99.90;;;;;;4992332;28;20140;-35
2023/11/01 05:29:22;;;;;;;1.80;0.77;;;14.10;99.90;;;;;;4992504;28;20032;-38
2023/11/01 05:31:48;;;;;;;1.83;0.55;;;14.10;99.90;;;;;;4992406;28;20066;-34
2023/11/01 05:34:13;;;;;;;1.45;0.47;;;14.10;99.90;;;;;;4992400;28;20137;-36
2023/11/01 05:36:39;;;;;;;1.80;0.70;;;14.10;99.90;;;;;;4992234;28;20049;-35
2023/11/01 05:39:05;;;;;;;3.20;0.75;;;14.10;99.90;;;;;;4992294;28;20053;-38
2023/11/01 05:41:31;;;;;;;3.30;0.80;;;14.10;99.90;;;;;;4992234;28;20058;-37
2023/11/01 05:43:57;;;;;;;1.88;0.50;;;14.10;99.90;;;;;;4992331;28;20049;-38
2023/11/01 05:46:22;;;;;;;3.08;0.68;;;14.00;99.90;;;;;;4992039;28;20026;-35
2023/11/01 05:48:48;;;;;;;2.03;0.60;;;14.10;99.90;;;;;;4992594;28;20034;-35
2023/11/01 05:51:15;;;;;;;0.93;0.35;;;14.10;99.90;;;;;;4991573;28;20038;-35
2023/11/01 05:53:40;;;;;;;0.98;0.60;;;14.00;99.90;;;;;;4992055;28;20018;-36
2023/11/01 05:56:09;;;;;;;1.15;0.40;;;14.00;99.90;;;;;;4991995;28;20443;-35
2023/11/01 05:58:34;;;;;;;1.75;0.40;;;14.00;99.90;;;;;;4992018;28;20042;-35
2023/11/01 06:01:00;;;;;;;3.72;0.90;;;14.10;99.90;;;;;;4992120;28;20767;-35
2023/11/01 06:03:26;;;;;;;0.80;0.50;;;14.00;99.90;;;;;;4992001;28;20027;-35
2023/11/01 06:05:57;;;;;;;1.27;0.60;;;14.00;99.90;;;;;;4991736;28;20093;-35
2023/11/01 06:08:23;;;;;;;1.23;0.70;;;14.00;99.90;;;;;;4992300;28;20046;-36
2023/11/01 06:10:49;;;;;;;3.00;0.70;;;14.00;99.90;;;;;;4991947;28;20058;-36
2023/11/01 06:13:14;;;;;;;0.82;0.40;;;14.00;99.90;;;;;;4974317;28;20121;-35
2023/11/01 06:15:40;;;;;;;2.13;0.73;;;14.00;99.90;;;;;;4991760;28;20019;-35
2023/11/01 06:18:06;;;;;;;1.48;0.47;;;14.00;99.90;;;;;;4991755;28;20085;-36
2023/11/01 06:20:33;;;;;;;2.28;0.80;;;14.00;99.90;;;;;;4991708;28;20102;-36
2023/11/01 06:22:59;;;;;;;1.35;0.60;;;14.00;99.90;;;;;;4991733;28;20030;-35
2023/11/01 06:25:25;;;;;;;1.08;0.60;;;14.00;99.90;;;;;;4991774;28;20587;-35
2023/11/01 06:27:51;;;;;;;1.20;0.47;;;14.00;99.90;;;;;;4991861;28;20030;-35
2023/11/01 06:30:17;;;;;;;2.30;0.60;;;14.00;99.90;;;;;;4991692;28;20022;-35
2023/11/01 06:32:42;;;;;;;1.00;0.50;;;14.00;99.90;;;;;;4974222;28;20027;-36
2023/11/01 06:35:08;;;;;;;1.38;0.60;;;14.00;99.90;;;;;;4991565;28;20034;-35
2023/11/01 06:37:34;;;;;;;1.05;0.50;;;14.00;99.90;;;;;;4973944;28;20146;-35
2023/11/01 06:40:01;;;;;;;3.72;0.77;;;14.00;99.90;;;;;;4991569;28;20031;-36
2023/11/01 06:42:26;;;;;;;2.25;0.65;;;14.00;99.90;;;;;;4991590;28;20022;-38
2023/11/01 06:44:52;;;;;;;2.85;0.80;;;14.00;99.90;;;;;;4991557;28;20033;-35
2023/11/01 06:47:17;;;;;;;1.67;0.60;;;14.00;99.90;;;;;;4991378;28;20030;-35
2023/11/01 06:49:43;;;;;;;0.93;0.43;;;14.00;99.90;;;;;;4991545;28;20109;-36
2023/11/01 06:52:09;;;;;;;3.53;0.73;;;14.00;99.90;;;;;;4991259;28;20511;-36
2023/11/01 06:54:38;;;;;;;1.58;0.50;;;14.00;99.90;;;;;;4991548;28;20023;-38
2023/11/01 06:57:04;;;;;;;2.15;0.68;;;14.00;99.90;;;;;;4991607;28;20442;-36
2023/11/01 06:59:29;;;;;;;1.75;0.60;;;14.00;99.90;;;;;;4991530;28;20105;-36
2023/11/01 07:01:55;;;;;;;2.90;0.80;;;14.00;99.90;;;;;;4991407;28;20168;-37
2023/11/01 07:04:20;;;;;;;1.75;0.60;;;14.00;99.90;;;;;;4993121;28;20035;-35
2023/11/01 07:06:46;;;;;;;3.30;0.60;;;14.00;99.90;;;;;;4994834;28;20026;-35
2023/11/01 07:09:12;;;;;;;2.78;0.70;;;14.00;99.90;;;;;;4995129;28;20097;-36
2023/11/01 07:11:38;;;;;;;2.60;0.50;;;14.00;99.90;;;;;;4994998;28;20085;-36
2023/11/01 07:14:04;;;;;;;0.90;0.32;;;14.00;99.90;;;;;;4995048;28;20037;-35
2023/11/01 07:16:31;;;;;;;1.40;0.70;;;14.00;99.90;;;;;;4994761;28;20420;-36
2023/11/01 07:18:58;;;;;;;2.05;0.70;;;14.00;99.90;;;;;;4994896;28;20026;-36
2023/11/01 07:21:24;;;;;;;0.70;0.40;;;14.00;99.90;;;;;;4994625;28;20034;-38
2023/11/01 07:23:49;;;;;;;1.15;0.50;;;14.00;99.90;;;;;;4994804;28;20027;-37
2023/11/01 07:26:15;;;;;;;0.65;0.50;;;14.00;99.90;;;;;;4994667;28;20038;-35
2023/11/01 07:28:41;;;;;;;1.13;0.57;;;14.10;99.90;;;;;;4994841;28;20419;-35
2023/11/01 07:31:07;;;;;;;2.83;1.10;;;14.10;99.90;;;;;;4988943;28;20015;-36
2023/11/01 07:33:32;;;;;;;5.82;1.10;;;14.00;99.90;;;;;;4991666;28;20019;-35
2023/11/01 07:35:58;;;;;;;5.35;1.25;;;13.80;99.90;;;;;;4976877;28;20168;-36
2023/11/01 07:38:23;;;;;;;3.42;1.13;;;13.60;99.90;;;;;;4993250;28;20030;-36
2023/11/01 07:40:49;;;;;;;3.42;1.10;;;13.40;99.90;;;;;;4994506;28;20030;-35
2023/11/01 07:43:15;;;;;;;3.90;1.50;;;13.40;99.90;;;;;;4994569;28;20098;-35
2023/11/01 07:45:41;;;;;;;4.53;1.10;;;13.50;99.90;;;;;;4994399;28;20030;-35
2023/11/01 07:48:07;;;;;;;5.10;1.20;;;13.60;99.90;;;;;;4994330;28;20049;-36
2023/11/01 07:50:32;;;;;;;2.80;0.88;;;13.60;99.90;;;;;;4994618;28;20039;-36
2023/11/01 07:52:58;;;;;;;4.13;1.00;;;13.70;99.90;;;;;;4994448;28;20109;-35
2023/11/01 07:55:23;;;;;;;3.72;1.10;;;13.80;99.90;;;;;;4994399;28;20034;-35
2023/11/01 07:57:49;;;;;;;1.98;0.80;;;13.80;99.90;;;;;;4994313;28;20022;-34
2023/11/01 08:00:15;;;;;;;2.58;1.13;;;13.80;99.90;;;;;;4994189;28;20501;-36
2023/11/01 08:02:41;;;;;;;6.40;0.90;;;13.90;99.90;;;;;;4994335;28;20480;-35
2023/11/01 08:05:07;;;;;;;3.47;0.70;;;13.90;99.90;;;;;;4993934;28;20101;-38
2023/11/01 08:07:33;;;;;;;2.13;0.70;;;14.00;99.90;;;;;;4994093;28;20337;-35
2023/11/01 08:09:59;;;;;;;1.35;0.68;;;14.00;99.90;;;;;;4993891;28;20488;-37
2023/11/01 08:12:26;;;;;;;2.30;0.70;;;14.00;99.90;;;;;;4993977;28;20022;-35
2023/11/01 08:14:52;;;;;;;1.13;0.68;;;14.00;99.90;;;;;;4993624;28;20036;-35
2023/11/01 08:17:18;;;;;;;3.08;0.88;;;14.10;99.90;;;;;;4992557;28;20054;-35
2023/11/01 08:19:44;;;;;;;2.53;0.75;;;14.10;99.90;;;;;;4993842;28;20465;-35
2023/11/01 08:22:12;;;;;;;2.03;0.60;;;14.20;99.90;;;;;;4993764;28;20109;-36
2023/11/01 08:24:38;;;;;;;1.77;0.60;;;14.20;99.90;;;;;;4993807;28;20376;-35
2023/11/01 08:27:04;;;;;;;1.50;0.73;;;14.30;99.90;;;;;;4993626;28;20455;-35
2023/11/01 08:29:31;;;;;;;0.57;0.45;;;14.30;99.90;;;;;;4993758;28;20087;-35
2023/11/01 08:31:57;;;;;;;1.73;0.60;;;14.40;99.90;;;;;;4993513;28;20030;-35
2023/11/01 08:34:23;;;;;;;2.55;0.77;;;14.40;99.90;;;;;;4993543;28;20023;-35
2023/11/01 08:36:48;;;;;;;1.80;0.65;;;14.40;99.90;;;;;;4993454;28;20049;-35
2023/11/01 08:39:14;;;;;;;1.00;0.50;;;14.40;99.90;;;;;;4993686;28;20026;-36
2023/11/01 08:41:39;;;;;;;1.35;0.60;;;14.50;99.90;;;;;;4993512;28;20038;-37
2023/11/01 08:44:05;;;;;;;1.42;0.68;;;14.50;99.90;;;;;;4993568;28;20026;-35
2023/11/01 08:46:31;;;;;;;2.78;0.50;;;14.50;99.90;;;;;;4993235;28;20109;-36
2023/11/01 08:48:58;;;;;;;1.75;0.70;;;14.50;99.90;;;;;;4993416;28;20498;-35
2023/11/01 08:51:25;;;;;;;1.08;0.40;;;14.50;99.90;;;;;;4993216;28;20525;-36
2023/11/01 08:53:51;;;;;;;1.17;0.63;;;14.50;99.90;;;;;;4993363;28;20034;-35
2023/11/01 08:56:17;;;;;;;2.03;0.40;;;14.50;99.90;;;;;;4993167;28;20026;-37
2023/11/01 08:58:43;;;;;;;1.63;0.60;;;14.50;99.90;;;;;;4993257;28;20022;-35
2023/11/01 09:01:08;;;;;;;1.05;0.40;;;14.50;99.90;;;;;;4993038;28;20088;-36
2023/11/01 09:03:34;;;;;;;1.52;0.68;;;14.50;99.90;;;;;;4993079;28;20096;-36
2023/11/01 09:06:00;;;;;;;1.45;0.60;;;14.50;99.90;;;;;;4992978;28;20026;-37
2023/11/01 09:08:26;;;;;;;1.40;0.60;;;14.60;99.90;;;;;;4993074;28;20034;-39
2023/11/01 09:10:52;;;;;;;2.28;0.70;;;14.60;99.90;;;;;;4993030;28;20033;-35
2023/11/01 09:13:18;;;;;;;1.83;0.57;;;14.60;99.90;;;;;;4992935;28;20101;-35
2023/11/01 09:15:45;;;;;;;1.92;0.70;;;14.60;99.90;;;;;;4992561;28;20097;-35
2023/11/01 09:18:10;;;;;;;2.63;0.60;;;14.70;99.90;;;;;;4992779;28;20025;-38
2023/11/01 09:20:36;;;;;;;1.92;0.52;;;14.60;99.90;;;;;;4992752;28;20022;-35
2023/11/01 09:23:03;;;;;;;0.93;0.40;;;14.70;99.90;;;;;;4992889;28;20050;-35
2023/11/01 09:25:29;;;;;;;1.70;0.75;;;14.70;99.90;;;;;;4992702;28;20078;-36
2023/11/01 09:27:55;;;;;;;0.77;0.50;;;14.70;99.90;;;;;;4991960;28;20499;-35
2023/11/01 09:30:21;;;;;;;0.88;0.50;;;14.70;99.90;;;;;;4992500;28;20026;-38
2023/11/01 09:32:46;;;;;;;2.00;0.47;;;14.70;99.90;;;;;;4992560;28;20023;-35
2023/11/01 09:35:12;;;;;;;1.02;0.50;;;14.70;99.90;;;;;;4992503;28;20030;-35
2023/11/01 09:37:38;;;;;;;0.75;0.50;;;14.70;99.90;;;;;;4992467;28;20484;-37
2023/11/01 09:40:05;;;;;;;1.27;0.50;;;14.70;99.90;;;;;;4992747;28;20081;-35
2023/11/01 09:42:31;;;;;;;1.20;0.60;;;14.80;99.90;;;;;;4992540;28;20061;-35
2023/11/01 09:44:58;;;;;;;0.60;0.30;;;14.80;99.90;;;;;;4992248;28;20050;-37
2023/11/01 09:47:27;;;;;;;0.65;0.43;;;14.70;99.90;;;;;;4992188;28;20391;-36
2023/11/01 09:49:56;;;;;;;1.70;0.60;;;14.80;99.90;;;;;;4992836;28;20033;-35
2023/11/01 09:52:23;;;;;;;1.02;0.60;;;14.80;99.90;;;;;;4993198;28;20076;-35
2023/11/01 09:54:49;;;;;;;1.27;0.47;;;14.80;99.90;;;;;;4992546;28;20058;-36
2023/11/01 09:57:17;;;;;;;1.38;0.50;;;14.80;99.90;;;;;;4992129;28;20030;-38
2023/11/01 09:59:45;;;;;;;0.82;0.50;;;14.80;99.90;;;;;;4991997;28;20030;-35
2023/11/01 10:02:12;;;;;;;0.68;0.40;;;14.80;99.90;;;;;;4992252;28;20158;-34
2023/11/01 10:04:41;;;;;;;0.95;0.50;;;14.90;99.90;;;;;;4992276;28;20081;-35
2023/11/01 10:07:07;;;;;;;1.27;0.57;;;14.90;99.90;;;;;;4991828;28;20031;-35
2023/11/01 10:09:38;;;;;;;0.70;0.40;;;14.90;99.90;;;;;;4992086;28;20018;-35
2023/11/01 10:12:09;;;;;;;0.68;0.40;;;14.90;99.90;;;;;;4992392;28;20030;-37
2023/11/01 10:14:36;;;;;;;1.02;0.43;;;14.90;99.90;;;;;;4992049;28;20385;-35
2023/11/01 10:17:04;;;;;;;0.50;0.40;;;14.90;99.90;;;;;;4992088;28;20034;-36
2023/11/01 10:19:30;;;;;;;0.70;0.30;;;14.90;99.90;;;;;;4992142;28;20030;-35
2023/11/01 10:21:56;;;;;;;0.85;0.30;;;14.90;99.90;;;;;;4991876;28;20026;-36
2023/11/01 10:24:25;;;;;;;0.60;0.40;;;14.90;99.90;;;;;;4991925;28;20029;-38
2023/11/01 10:26:55;;;;;;;0.80;0.63;;;14.90;99.90;;;;;;4991576;28;20041;-35
2023/11/01 10:29:24;;;;;;;0.80;0.45;;;14.90;99.90;;;;;;4990378;28;20022;-37
2023/11/01 10:31:54;;;;;;;0.65;0.30;;;15.00;99.90;;;;;;4991852;28;20029;-35
2023/11/01 10:34:26;;;;;;;0.80;0.50;;;15.00;99.90;;;;;;4991619;28;20054;-35
2023/11/01 10:36:53;;;;;;;0.77;0.40;;;15.00;99.90;;;;;;4991460;28;20022;-38
2023/11/01 10:39:21;;;;;;;1.35;0.57;;;15.00;99.90;;;;;;4995181;28;20081;-35
2023/11/01 10:41:48;;;;;;;0.90;0.40;;;15.00;99.90;;;;;;4995629;28;20031;-35
2023/11/01 10:44:15;;;;;;;0.93;0.52;;;15.00;99.90;;;;;;4995641;28;20178;-34
2023/11/01 10:46:42;;;;;;;1.27;0.50;;;15.10;99.90;;;;;;4995475;28;20069;-35
2023/11/01 10:49:10;;;;;;;2.05;0.43;;;15.00;99.90;;;;;;4995222;28;20430;-35
2023/11/01 10:51:37;;;;;;;0.63;0.50;;;15.00;99.90;;;;;;4995454;28;20034;-35
2023/11/01 10:54:03;;;;;;;0.90;0.50;;;15.10;99.90;;;;;;4995566;28;20014;-36
2023/11/01 10:56:29;;;;;;;0.70;0.40;;;15.10;99.90;;;;;;4995240;28;20042;-35
2023/11/01 10:59:20;;;;;;;1.33;0.50;;;15.10;99.90;;;;;;4995653;28;20030;-36
2023/11/01 11:01:56;;;;;;;0.73;0.50;;;15.10;99.90;;;;;;4995370;28;20057;-36
2023/11/01 11:04:32;;;;;;;0.90;0.40;;;15.10;99.90;;;;;;4995293;28;20026;-35
2023/11/01 11:07:06;;;;;;;1.27;0.52;;;15.10;99.90;;;;;;4995009;28;20065;-36
2023/11/01 11:09:32;;;;;;;0.47;0.30;;;15.10;99.90;;;;;;4995133;28;20018;-35
2023/11/01 11:12:20;;;;;;;0.88;0.40;;;15.20;99.90;;;;;;4995252;28;20642;-35
2023/11/01 11:14:50;;;;;;;1.60;0.50;;;15.20;99.90;;;;;;4995124;28;20076;-36
2023/11/01 11:17:20;;;;;;;1.95;0.60;;;15.20;99.90;;;;;;4995301;28;20073;-35
2023/11/01 11:20:05;;;;;;;1.48;0.45;;;15.20;99.90;;;;;;4995114;28;20031;-35
2023/11/01 11:23:01;;;;;;;0.88;0.40;;;15.20;99.90;;;;;;4995058;28;20084;-35
2023/11/01 11:25:43;;;;;;;1.15;0.40;;;15.20;99.90;;;;;;4994974;28;20026;-35
2023/11/01 11:28:18;;;;;;;1.67;0.50;;;15.20;99.90;;;;;;4994826;28;20460;-35
2023/11/01 11:30:47;;;;;;;0.50;0.40;;;15.30;99.90;;;;;;4994919;28;20109;-36
2023/11/01 11:33:14;;;;;;;0.65;0.30;;;15.30;99.90;;;;;;4995036;28;20026;-35
2023/11/01 11:35:41;;;;;;;1.55;0.70;;;15.30;99.90;;;;;;4994981;28;20026;-36
2023/11/01 11:38:34;;;;;;;1.13;0.50;;;15.30;99.90;;;;;;4994620;28;20026;-35
2023/11/01 11:41:19;;;;;;;1.50;0.57;;;15.30;99.90;;;;;;4994580;28;20037;-37
2023/11/01 11:44:13;;;;;;;1.20;0.30;;;15.30;99.90;;;;;;4994555;28;20114;-35
2023/11/01 11:46:53;;;;;;;0.63;0.35;;;15.30;99.90;;;;;;4994445;28;20030;-37
2023/11/01 11:49:28;;;;;;;2.95;0.55;;;15.30;99.90;;;;;;4993905;28;20431;-33
2023/11/01 11:52:02;;;;;;;1.98;0.45;;;15.20;99.90;;;;;;4994225;28;20288;-38
2023/11/01 11:54:32;;;;;;;0.80;0.40;;;15.30;99.90;;;;;;4994417;28;20080;-35
2023/11/01 11:57:10;;;;;;;0.47;0.38;;;15.20;99.90;;;;;;4994312;28;20053;-35
2023/11/01 11:59:36;;;;;;;0.90;0.50;;;15.20;99.90;;;;;;4994499;28;20033;-36
2023/11/01 12:02:10;;;;;;;1.27;0.45;;;15.20;99.90;;;;;;4994381;28;20113;-36
2023/11/01 12:04:36;;;;;;;1.58;0.57;;;15.20;99.90;;;;;;4994191;28;20037;-38
2023/11/01 12:07:02;;;;;;;0.90;0.40;;;15.20;99.90;;;;;;4994288;28;20018;-36
2023/11/01 12:09:29;;;;;;;4.07;0.40;;;15.20;99.90;;;;;;4994271;28;20019;-36
2023/11/01 12:12:07;;;;;;;1.42;0.50;;;15.20;99.90;;;;;;4993973;28;20028;-38
2023/11/01 12:14:34;;;;;;;1.08;0.30;;;15.20;99.90;;;;;;4994120;28;20064;-36
2023/11/01 12:17:04;;;;;;;0.80;0.45;;;15.20;99.90;;;;;;4993968;28;20034;-35
2023/11/01 12:19:32;;;;;;;0.57;0.40;;;15.20;99.90;;;;;;4994282;28;20092;-35
2023/11/01 12:21:59;;;;;;;1.83;0.47;;;15.30;99.90;;;;;;4993945;28;20037;-35
2023/11/01 12:24:38;;;;;;;0.60;0.40;;;15.20;99.90;;;;;;4994028;28;20042;-34
2023/11/01 12:27:17;;;;;;;0.93;0.40;;;15.20;99.90;;;;;;4994050;28;20022;-35
2023/11/01 12:29:48;;;;;;;1.95;0.50;;;15.20;99.90;;;;;;4993844;28;20021;-38
2023/11/01 12:32:15;;;;;;;0.30;0.30;;;15.20;99.90;;;;;;4993744;28;20101;-37
2023/11/01 12:34:50;;;;;;;0.57;0.40;;;15.20;99.90;;;;;;4994114;28;20050;-35
2023/11/01 12:37:24;;;;;;;0.70;0.30;;;15.20;99.90;;;;;;4993749;28;20018;-36
2023/11/01 12:40:10;;;;;;;1.67;0.30;;;15.20;99.90;;;;;;4993665;28;20497;-39
2023/11/01 12:42:37;;;;;;;0.70;0.40;;;15.20;99.90;;;;;;4993840;28;20053;-35
2023/11/01 12:45:03;;;;;;;1.20;0.50;;;15.20;99.90;;;;;;4993740;28;20034;-35
2023/11/01 12:47:40;;;;;;;1.35;0.40;;;15.20;99.90;;;;;;4993343;28;20049;-35